createdAt,value
2017-08-18T00:00:06.094Z,97.28
2017-08-18T00:01:06.071Z,97.47
2017-08-18T00:02:06.050Z,97.47
2017-08-18T00:03:06.029Z,97.38
2017-08-18T00:04:06.016Z,97.28
2017-08-18T00:05:05.690Z,97.57
2017-08-18T00:06:05.974Z,97.38
2017-08-18T00:07:05.955Z,97.47
2017-08-18T00:08:05.929Z,97.19
2017-08-18T00:09:05.918Z,97.47
2017-08-18T00:10:05.895Z,97.86
2017-08-18T00:11:05.873Z,97.38
2017-08-18T00:12:05.552Z,97.47
2017-08-18T00:13:05.833Z,97.47
2017-08-18T00:14:05.819Z,97.47
2017-08-18T00:15:05.799Z,97.76
2017-08-18T00:16:05.771Z,97.42
2017-08-18T00:17:05.755Z,97.42
2017-08-18T00:18:05.730Z,97.81
2017-08-18T00:19:05.711Z,97.47
2017-08-18T00:20:05.699Z,97.19
2017-08-18T00:21:05.664Z,97.57
2017-08-18T00:22:05.648Z,97.38
2017-08-18T00:23:05.639Z,97.52
2017-08-18T00:24:05.609Z,97.91
2017-08-18T00:25:05.596Z,97.38
2017-08-18T00:26:05.570Z,97.52
2017-08-18T00:27:05.556Z,97.09
2017-08-18T00:28:05.529Z,97.57
2017-08-18T00:29:05.513Z,97.47
2017-08-18T00:30:05.492Z,97.71
2017-08-18T00:31:05.477Z,97.38
2017-08-18T00:32:05.453Z,97.71
2017-08-18T00:33:05.436Z,97.66
2017-08-18T00:34:05.418Z,97.57
2017-08-18T00:35:05.392Z,97.76
2017-08-18T00:36:05.369Z,97.57
2017-08-18T00:37:05.350Z,97.76
2017-08-18T00:38:05.334Z,97.66
2017-08-18T00:39:05.314Z,97.38
2017-08-18T00:40:05.296Z,97.57
2017-08-18T00:41:05.271Z,97.57
2017-08-18T00:42:05.253Z,97.47
2017-08-18T00:43:05.228Z,97.38
2017-08-18T00:44:05.215Z,97.28
2017-08-18T00:45:05.192Z,97.47
2017-08-18T00:46:05.178Z,97.96
2017-08-18T00:47:05.155Z,97.28
2017-08-18T00:48:05.143Z,97.28
2017-08-18T00:49:05.109Z,97.38
2017-08-18T00:50:05.149Z,98.14
2017-08-18T00:51:05.070Z,97.28
2017-08-18T00:52:05.050Z,97.96
2017-08-18T00:53:05.033Z,98.24
2017-08-18T00:54:05.013Z,98.24
2017-08-18T00:55:04.993Z,98.24
2017-08-18T00:56:04.670Z,98.14
2017-08-18T00:57:04.951Z,98.14
2017-08-18T00:58:04.930Z,97.96
2017-08-18T00:59:04.960Z,98.14
2017-08-18T01:00:04.893Z,98.05
2017-08-18T01:01:04.872Z,97.86
2017-08-18T01:02:04.851Z,97.96
2017-08-18T01:03:04.835Z,98.14
2017-08-18T01:04:04.808Z,98.24
2017-08-18T01:05:04.788Z,98.14
2017-08-18T01:06:04.770Z,98.14
2017-08-18T01:07:04.751Z,98.34
2017-08-18T01:08:04.425Z,98.24
2017-08-18T01:09:04.712Z,98.14
2017-08-18T01:10:04.691Z,98.24
2017-08-18T01:11:04.670Z,98.14
2017-08-18T01:12:04.649Z,98.53
2017-08-18T01:13:04.625Z,98.24
2017-08-18T01:14:04.611Z,98.34
2017-08-18T01:15:04.587Z,98.24
2017-08-18T01:16:04.568Z,98.24
2017-08-18T01:17:04.556Z,98.34
2017-08-18T01:18:04.531Z,98.24
2017-08-18T01:19:04.534Z,98.34
2017-08-18T01:20:04.497Z,98.34
2017-08-18T01:21:04.468Z,98.24
2017-08-18T01:22:04.448Z,98.24
2017-08-18T01:23:04.435Z,98.34
2017-08-18T01:24:04.404Z,98.34
2017-08-18T01:25:04.393Z,98.24
2017-08-18T01:26:04.365Z,98.34
2017-08-18T01:27:04.351Z,98.34
2017-08-18T01:28:04.327Z,98.05
2017-08-18T01:29:04.305Z,98.05
2017-08-18T01:30:04.290Z,98.14
2017-08-18T01:31:04.266Z,98.24
2017-08-18T01:32:04.250Z,98.05
2017-08-18T01:33:04.231Z,98.14
2017-08-18T01:34:04.202Z,98.14
2017-08-18T01:35:04.185Z,98.72
2017-08-18T01:36:03.862Z,98.91
2017-08-18T01:37:04.143Z,98.77
2017-08-18T01:38:04.121Z,98.63
2017-08-18T01:39:04.106Z,98.77
2017-08-18T01:40:04.093Z,98.77
2017-08-18T01:41:04.075Z,98.86
2017-08-18T01:42:04.045Z,98.58
2017-08-18T01:43:04.027Z,98.58
2017-08-18T01:44:04.008Z,98.96
2017-08-18T01:45:03.984Z,99.15
2017-08-18T01:46:03.992Z,99.34
2017-08-18T01:47:03.951Z,99.25
2017-08-18T01:48:03.925Z,99.34
2017-08-18T01:49:03.907Z,98.77
2017-08-18T01:50:03.881Z,99.34
2017-08-18T01:51:03.869Z,98.96
2017-08-18T01:52:03.846Z,99.15
2017-08-18T01:53:03.826Z,98.77
2017-08-18T01:54:03.836Z,99.05
2017-08-18T01:55:03.784Z,98.86
2017-08-18T01:56:03.762Z,98.96
2017-08-18T01:57:03.746Z,98.96
2017-08-18T01:58:03.719Z,99.05
2017-08-18T01:59:03.403Z,99.05
2017-08-18T02:00:03.681Z,98.77
2017-08-18T02:01:03.665Z,99.73
2017-08-18T02:02:03.646Z,99.25
2017-08-18T02:03:03.618Z,99.54
2017-08-18T02:04:03.607Z,99.63
2017-08-18T02:05:03.594Z,99.34
2017-08-18T02:06:03.557Z,99.34
2017-08-18T02:07:03.534Z,99.34
2017-08-18T02:08:03.523Z,99.34
2017-08-18T02:09:03.499Z,99.54
2017-08-18T02:10:03.476Z,99.54
2017-08-18T02:11:03.491Z,99.44
2017-08-18T02:12:03.446Z,99.44
2017-08-18T02:13:03.114Z,99.73
2017-08-18T02:14:03.401Z,99.58
2017-08-18T02:15:03.377Z,99.96
2017-08-18T02:16:03.358Z,99.77
2017-08-18T02:17:03.394Z,99.68
2017-08-18T02:18:03.314Z,99.68
2017-08-18T02:19:03.294Z,99.87
2017-08-18T02:20:03.275Z,99.77
2017-08-18T02:21:03.263Z,99.29
2017-08-18T02:22:03.238Z,99.49
2017-08-18T02:23:02.918Z,99.39
2017-08-18T02:24:02.891Z,99.49
2017-08-18T02:25:03.174Z,99.77
2017-08-18T02:26:03.163Z,99.87
2017-08-18T02:27:03.135Z,99.49
2017-08-18T02:28:03.118Z,99.58
2017-08-18T02:29:03.095Z,99.99
2017-08-18T02:30:03.078Z,99.99
2017-08-18T02:31:03.052Z,99.99
2017-08-18T02:32:03.038Z,99.99
2017-08-18T02:33:03.019Z,99.99
2017-08-18T02:34:02.997Z,99.87
2017-08-18T02:35:02.974Z,99.96
2017-08-18T02:36:02.952Z,99.96
2017-08-18T02:37:02.945Z,99.96
2017-08-18T02:38:02.917Z,99.49
2017-08-18T02:39:02.892Z,99.99
2017-08-18T02:40:02.881Z,99.96
2017-08-18T02:41:02.853Z,99.99
2017-08-18T02:42:02.835Z,99.99
2017-08-18T02:43:02.818Z,99.99
2017-08-18T02:44:02.793Z,99.99
2017-08-18T02:45:02.778Z,99.99
2017-08-18T02:46:02.447Z,99.99
2017-08-18T02:47:02.780Z,99.96
2017-08-18T02:48:02.708Z,99.99
2017-08-18T02:49:02.693Z,99.99
2017-08-18T02:50:02.672Z,99.99
2017-08-18T02:51:02.643Z,99.99
2017-08-18T02:52:02.621Z,99.99
2017-08-18T02:53:02.606Z,99.99
2017-08-18T02:54:02.581Z,99.99
2017-08-18T02:55:02.565Z,99.99
2017-08-18T02:56:02.544Z,99.99
2017-08-18T02:57:02.518Z,99.99
2017-08-18T02:58:02.500Z,99.99
2017-08-18T02:59:02.486Z,99.99
2017-08-18T03:00:02.461Z,99.99
2017-08-18T03:01:02.438Z,99.99
2017-08-18T03:02:02.473Z,99.99
2017-08-18T03:03:02.397Z,99.99
2017-08-18T03:04:02.394Z,99.99
2017-08-18T03:05:02.414Z,99.99
2017-08-18T03:06:02.338Z,99.99
2017-08-18T03:07:02.327Z,99.99
2017-08-18T03:08:02.294Z,99.99
2017-08-18T03:09:02.283Z,99.99
2017-08-18T03:10:02.256Z,99.99
2017-08-18T03:11:02.238Z,99.99
2017-08-18T03:12:02.214Z,99.99
2017-08-18T03:13:02.191Z,99.99
2017-08-18T03:14:02.175Z,99.99
2017-08-18T03:15:02.155Z,99.99
2017-08-18T03:16:02.133Z,99.99
2017-08-18T03:17:02.113Z,99.99
2017-08-18T03:18:02.092Z,99.99
2017-08-18T03:19:02.075Z,99.99
2017-08-18T03:20:02.051Z,99.99
2017-08-18T03:21:02.034Z,99.99
2017-08-18T03:22:02.014Z,99.99
2017-08-18T03:23:01.993Z,99.99
2017-08-18T03:24:02.024Z,99.99
2017-08-18T03:25:01.949Z,99.99
2017-08-18T03:26:01.930Z,99.99
2017-08-18T03:27:01.909Z,99.99
2017-08-18T03:28:01.890Z,99.99
2017-08-18T03:29:01.880Z,99.99
2017-08-18T03:30:01.861Z,99.99
2017-08-18T03:31:01.840Z,99.99
2017-08-18T03:32:01.804Z,99.99
2017-08-18T03:33:01.795Z,99.99
2017-08-18T03:34:01.766Z,99.99
2017-08-18T03:35:01.811Z,99.99
2017-08-18T03:36:01.728Z,99.99
2017-08-18T03:37:01.706Z,99.99
2017-08-18T03:38:01.684Z,99.99
2017-08-18T03:39:01.664Z,99.99
2017-08-18T03:40:01.643Z,99.99
2017-08-18T03:41:01.625Z,99.99
2017-08-18T03:42:01.602Z,99.99
2017-08-18T03:43:01.583Z,99.99
2017-08-18T03:44:01.564Z,99.99
2017-08-18T03:45:01.550Z,99.99
2017-08-18T03:46:01.573Z,99.99
2017-08-18T03:47:01.505Z,99.99
2017-08-18T03:48:01.479Z,99.99
2017-08-18T03:49:01.468Z,99.99
2017-08-18T03:50:01.443Z,99.99
2017-08-18T03:51:01.417Z,99.99
2017-08-18T03:52:01.406Z,99.99
2017-08-18T03:53:01.378Z,99.99
2017-08-18T03:54:01.357Z,99.99
2017-08-18T03:55:01.339Z,99.99
2017-08-18T03:56:01.323Z,99.99
2017-08-18T03:57:01.317Z,99.99
2017-08-18T03:58:01.279Z,99.99
2017-08-18T03:59:01.262Z,99.99
2017-08-18T04:00:01.236Z,99.99
2017-08-18T04:01:01.319Z,99.99
2017-08-18T04:02:01.200Z,99.99
2017-08-18T04:03:01.191Z,99.99
2017-08-18T04:04:01.155Z,99.99
2017-08-18T04:05:01.189Z,99.99
2017-08-18T04:06:01.113Z,99.99
2017-08-18T04:07:01.094Z,99.99
2017-08-18T04:08:01.073Z,99.92
2017-08-18T04:09:01.056Z,99.99
2017-08-18T04:10:01.046Z,99.99
2017-08-18T04:11:01.026Z,99.99
2017-08-18T04:12:00.994Z,99.99
2017-08-18T04:13:00.974Z,99.99
2017-08-18T04:14:00.968Z,99.99
2017-08-18T04:15:00.936Z,99.99
2017-08-18T04:16:00.913Z,99.99
2017-08-18T04:17:00.889Z,99.99
2017-08-18T04:18:00.922Z,99.99
2017-08-18T04:19:00.856Z,99.99
2017-08-18T04:20:00.830Z,99.99
2017-08-18T04:21:00.809Z,99.99
2017-08-18T04:22:00.799Z,99.99
2017-08-18T04:23:00.771Z,99.99
2017-08-18T04:24:00.763Z,99.99
2017-08-18T04:25:00.730Z,99.99
2017-08-18T04:26:00.707Z,99.99
2017-08-18T04:27:00.691Z,99.99
2017-08-18T04:28:00.672Z,99.99
2017-08-18T04:29:00.353Z,99.99
2017-08-18T04:30:00.636Z,99.92
2017-08-18T04:31:00.609Z,99.99
2017-08-18T04:32:00.591Z,99.99
2017-08-18T04:33:00.618Z,99.92
2017-08-18T04:34:00.545Z,99.92
2017-08-18T04:35:00.528Z,99.99
2017-08-18T04:36:00.507Z,99.82
2017-08-18T04:37:00.490Z,99.99
2017-08-18T04:38:00.481Z,99.99
2017-08-18T04:39:00.448Z,99.99
2017-08-18T04:40:00.426Z,99.99
2017-08-18T04:41:00.415Z,99.99
2017-08-18T04:42:00.387Z,99.99
2017-08-18T04:43:00.372Z,99.99
2017-08-18T04:44:00.353Z,99.63
2017-08-18T04:45:00.320Z,99.63
2017-08-18T04:46:00.302Z,99.99
2017-08-18T04:47:00.290Z,99.63
2017-08-18T04:48:00.264Z,99.44
2017-08-18T04:49:00.248Z,99.92
2017-08-18T04:50:00.221Z,99.73
2017-08-18T04:50:59.927Z,99.92
2017-08-18T04:52:00.189Z,99.92
2017-08-18T04:53:00.165Z,99.54
2017-08-18T04:54:00.146Z,99.54
2017-08-18T04:55:00.129Z,99.73
2017-08-18T04:56:00.108Z,99.92
2017-08-18T04:57:00.137Z,99.92
2017-08-18T04:58:00.079Z,99.4
2017-08-18T04:59:00.107Z,99.63
2017-08-18T05:00:00.025Z,99.63
2017-08-18T05:01:00.006Z,99.78
2017-08-18T05:01:59.985Z,99.78
2017-08-18T05:02:59.968Z,99.87
2017-08-18T05:03:59.942Z,99.99
2017-08-18T05:04:59.925Z,99.99
2017-08-18T05:05:59.906Z,99.92
2017-08-18T05:06:59.885Z,99.78
2017-08-18T05:07:59.865Z,99.99
2017-08-18T05:08:59.546Z,99.99
2017-08-18T05:09:59.823Z,99.99
2017-08-18T05:10:59.501Z,99.87
2017-08-18T05:11:59.777Z,99.58
2017-08-18T05:12:59.819Z,99.68
2017-08-18T05:13:59.742Z,99.58
2017-08-18T05:14:59.721Z,99.49
2017-08-18T05:15:59.706Z,99.49
2017-08-18T05:16:59.681Z,99.3
2017-08-18T05:17:59.663Z,99.44
2017-08-18T05:18:59.645Z,99.58
2017-08-18T05:19:59.627Z,99.68
2017-08-18T05:20:59.610Z,99.54
2017-08-18T05:21:59.586Z,99.58
2017-08-18T05:22:59.583Z,99.34
2017-08-18T05:23:59.544Z,99.3
2017-08-18T05:24:59.523Z,99.58
2017-08-18T05:25:59.505Z,99.4
2017-08-18T05:26:59.482Z,99.73
2017-08-18T05:27:59.467Z,99.49
2017-08-18T05:28:59.446Z,99.58
2017-08-18T05:29:59.478Z,99.78
2017-08-18T05:30:59.404Z,99.68
2017-08-18T05:31:59.382Z,99.58
2017-08-18T05:32:59.367Z,99.4
2017-08-18T05:33:59.342Z,98.91
2017-08-18T05:34:59.324Z,99.01
2017-08-18T05:35:59.324Z,98.91
2017-08-18T05:36:59.282Z,98.91
2017-08-18T05:37:58.967Z,99.01
2017-08-18T05:38:59.245Z,98.72
2017-08-18T05:39:59.233Z,98.63
2017-08-18T05:40:59.202Z,98.63
2017-08-18T05:41:59.186Z,99.1
2017-08-18T05:42:59.167Z,99.4
2017-08-18T05:43:59.142Z,99.3
2017-08-18T05:44:59.125Z,99.3
2017-08-18T05:45:59.107Z,99.3
2017-08-18T05:46:59.140Z,99.1
2017-08-18T05:47:59.065Z,99.3
2017-08-18T05:48:59.091Z,99.4
2017-08-18T05:49:59.032Z,99.1
2017-08-18T05:50:59.003Z,99.01
2017-08-18T05:51:58.984Z,99.01
2017-08-18T05:52:58.969Z,99.1
2017-08-18T05:53:58.940Z,99.2
2017-08-18T05:54:58.923Z,99.2
2017-08-18T05:55:58.900Z,99.2
2017-08-18T05:56:58.879Z,99.2
2017-08-18T05:57:58.869Z,98.72
2017-08-18T05:58:58.539Z,99.2
2017-08-18T05:59:58.821Z,99.2
2017-08-18T06:00:58.805Z,99.2
2017-08-18T06:01:58.784Z,99.2
2017-08-18T06:02:58.768Z,99.2
2017-08-18T06:03:58.752Z,98.82
2017-08-18T06:04:58.726Z,98.82
2017-08-18T06:05:58.709Z,99.1
2017-08-18T06:06:58.684Z,98.72
2017-08-18T06:07:58.666Z,98.82
2017-08-18T06:08:58.644Z,98.82
2017-08-18T06:09:58.628Z,98.82
2017-08-18T06:10:58.607Z,98.82
2017-08-18T06:11:58.586Z,98.82
2017-08-18T06:12:58.574Z,98.82
2017-08-18T06:13:58.548Z,98.82
2017-08-18T06:14:58.525Z,98.72
2017-08-18T06:15:58.508Z,98.63
2017-08-18T06:16:58.488Z,98.82
2017-08-18T06:17:58.462Z,98.72
2017-08-18T06:18:58.448Z,99.1
2017-08-18T06:19:58.476Z,99.4
2017-08-18T06:20:58.409Z,99.3
2017-08-18T06:21:58.084Z,99.1
2017-08-18T06:22:58.364Z,99.01
2017-08-18T06:23:58.353Z,98.82
2017-08-18T06:24:58.330Z,98.82
2017-08-18T06:25:58.304Z,99.01
2017-08-18T06:26:58.298Z,98.82
2017-08-18T06:27:58.272Z,99.68
2017-08-18T06:28:58.243Z,99.58
2017-08-18T06:29:58.228Z,99.49
2017-08-18T06:30:58.207Z,99.4
2017-08-18T06:31:58.192Z,99.73
2017-08-18T06:32:58.164Z,99.49
2017-08-18T06:33:58.142Z,99.49
2017-08-18T06:34:58.128Z,99.58
2017-08-18T06:35:58.101Z,99.25
2017-08-18T06:36:58.091Z,99.34
2017-08-18T06:37:58.058Z,99.99
2017-08-18T06:38:58.097Z,99.99
2017-08-18T06:39:58.024Z,99.99
2017-08-18T06:40:58.003Z,99.99
2017-08-18T06:41:57.989Z,99.99
2017-08-18T06:42:57.962Z,99.73
2017-08-18T06:43:57.942Z,99.73
2017-08-18T06:44:57.922Z,99.99
2017-08-18T06:45:57.913Z,99.73
2017-08-18T06:46:57.898Z,99.73
2017-08-18T06:47:57.558Z,99.82
2017-08-18T06:48:57.844Z,99.92
2017-08-18T06:49:57.827Z,99.82
2017-08-18T06:50:57.800Z,99.54
2017-08-18T06:51:57.780Z,99.54
2017-08-18T06:52:57.757Z,99.54
2017-08-18T06:53:57.791Z,99.73
2017-08-18T06:54:57.723Z,99.44
2017-08-18T06:55:57.708Z,99.54
2017-08-18T06:56:57.677Z,99.63
2017-08-18T06:57:57.657Z,99.54
2017-08-18T06:58:57.338Z,99.73
2017-08-18T06:59:57.623Z,99.63
2017-08-18T07:00:57.601Z,99.54
2017-08-18T07:01:57.586Z,99.73
2017-08-18T07:02:57.561Z,99.73
2017-08-18T07:03:57.538Z,99.73
2017-08-18T07:04:57.523Z,99.73
2017-08-18T07:05:57.498Z,99.73
2017-08-18T07:06:57.482Z,99.54
2017-08-18T07:07:57.456Z,99.73
2017-08-18T07:08:57.441Z,99.73
2017-08-18T07:09:57.413Z,99.54
2017-08-18T07:10:57.399Z,99.54
2017-08-18T07:11:57.383Z,99.97
2017-08-18T07:12:57.360Z,99.68
2017-08-18T07:13:57.330Z,99.78
2017-08-18T07:14:57.616Z,99.82
2017-08-18T07:15:57.302Z,99.99
2017-08-18T07:16:57.279Z,99.87
2017-08-18T07:17:57.258Z,99.78
2017-08-18T07:18:57.238Z,99.49
2017-08-18T07:19:57.214Z,99.68
2017-08-18T07:20:57.204Z,99.49
2017-08-18T07:21:57.175Z,99.78
2017-08-18T07:22:57.164Z,99.58
2017-08-18T07:23:57.138Z,99.49
2017-08-18T07:24:57.113Z,99.58
2017-08-18T07:25:57.098Z,99.68
2017-08-18T07:26:57.077Z,99.49
2017-08-18T07:27:57.054Z,99.78
2017-08-18T07:28:57.043Z,99.78
2017-08-18T07:29:57.015Z,99.01
2017-08-18T07:30:57.001Z,99.3
2017-08-18T07:31:56.975Z,98.82
2017-08-18T07:32:56.957Z,99.01
2017-08-18T07:33:56.940Z,98.91
2017-08-18T07:34:56.917Z,98.82
2017-08-18T07:35:56.900Z,98.63
2017-08-18T07:36:56.878Z,99.1
2017-08-18T07:37:56.855Z,98.91
2017-08-18T07:38:56.840Z,99.3
2017-08-18T07:39:56.821Z,99.44
2017-08-18T07:40:56.802Z,99.15
2017-08-18T07:41:56.486Z,98.58
2017-08-18T07:42:56.762Z,98.86
2017-08-18T07:43:56.740Z,98.86
2017-08-18T07:44:56.423Z,98.39
2017-08-18T07:45:56.707Z,98.48
2017-08-18T07:46:56.684Z,98.72
2017-08-18T07:47:56.711Z,98.48
2017-08-18T07:48:56.644Z,98.34
2017-08-18T07:49:56.623Z,98.24
2017-08-18T07:50:56.607Z,97.96
2017-08-18T07:51:56.285Z,97.67
2017-08-18T07:52:56.565Z,97.67
2017-08-18T07:53:56.598Z,97.96
2017-08-18T07:54:56.528Z,97.38
2017-08-18T07:55:56.511Z,97.47
2017-08-18T07:56:56.492Z,96.7
2017-08-18T07:57:56.474Z,97.19
2017-08-18T07:58:56.206Z,97.38
2017-08-18T07:59:56.430Z,97.28
2017-08-18T08:00:56.414Z,97.52
2017-08-18T08:01:56.403Z,96.94
2017-08-18T08:02:56.377Z,97.14
2017-08-18T08:03:56.364Z,96.75
2017-08-18T08:04:56.355Z,96.85
2017-08-18T08:05:56.331Z,96.85
2017-08-18T08:06:56.304Z,96.94
2017-08-18T08:07:56.346Z,96.85
2017-08-18T08:08:56.265Z,97.28
2017-08-18T08:09:56.244Z,96.7
2017-08-18T08:10:56.231Z,96.7
2017-08-18T08:11:56.204Z,96.99
2017-08-18T08:12:56.188Z,96.7
2017-08-18T08:13:56.167Z,96.9
2017-08-18T08:14:56.146Z,96.9
2017-08-18T08:15:55.825Z,97.09
2017-08-18T08:16:56.107Z,96.7
2017-08-18T08:17:56.093Z,96.8
2017-08-18T08:18:56.073Z,96.9
2017-08-18T08:19:56.052Z,96.51
2017-08-18T08:20:56.030Z,96.61
2017-08-18T08:21:56.013Z,96.9
2017-08-18T08:22:55.999Z,97.09
2017-08-18T08:23:55.977Z,96.61
2017-08-18T08:24:56.004Z,96.51
2017-08-18T08:25:55.951Z,96.7
2017-08-18T08:26:55.915Z,96.61
2017-08-18T08:27:55.898Z,96.7
2017-08-18T08:28:55.883Z,96.99
2017-08-18T08:29:55.865Z,96.99
2017-08-18T08:30:55.843Z,96.99
2017-08-18T08:31:55.825Z,96.9
2017-08-18T08:32:55.798Z,97.14
2017-08-18T08:33:55.782Z,96.94
2017-08-18T08:34:55.765Z,97.14
2017-08-18T08:35:55.747Z,96.94
2017-08-18T08:36:55.729Z,96.37
2017-08-18T08:37:55.708Z,96.37
2017-08-18T08:38:55.683Z,96.47
2017-08-18T08:39:55.672Z,96.47
2017-08-18T08:40:55.650Z,96.37
2017-08-18T08:41:55.632Z,96.56
2017-08-18T08:42:55.608Z,96.37
2017-08-18T08:43:55.592Z,96.66
2017-08-18T08:44:55.581Z,96.08
2017-08-18T08:45:55.556Z,96.08
2017-08-18T08:46:55.543Z,96.27
2017-08-18T08:47:55.526Z,96.08
2017-08-18T08:48:55.503Z,96.17
2017-08-18T08:49:55.484Z,96.17
2017-08-18T08:50:55.458Z,96.85
2017-08-18T08:51:55.446Z,95.79
2017-08-18T08:52:55.425Z,95.79
2017-08-18T08:53:55.407Z,96.08
2017-08-18T08:54:55.386Z,95.89
2017-08-18T08:55:55.372Z,95.79
2017-08-18T08:56:55.358Z,95.98
2017-08-18T08:57:55.327Z,95.79
2017-08-18T08:58:55.307Z,95.84
2017-08-18T08:59:55.290Z,96.03
2017-08-18T09:00:55.323Z,95.65
2017-08-18T09:01:55.251Z,95.94
2017-08-18T09:02:55.235Z,95.74
2017-08-18T09:03:55.218Z,95.65
2017-08-18T09:04:55.193Z,95.74
2017-08-18T09:05:55.176Z,95.45
2017-08-18T09:06:55.163Z,95.17
2017-08-18T09:07:55.142Z,95.02
2017-08-18T09:08:55.147Z,95.21
2017-08-18T09:09:55.101Z,95.31
2017-08-18T09:10:55.086Z,94.25
2017-08-18T09:11:55.126Z,94.39
2017-08-18T09:12:55.305Z,93.81
2017-08-18T09:13:55.031Z,94.01
2017-08-18T09:14:55.013Z,93.91
2017-08-18T09:15:55.007Z,93.52
2017-08-18T09:16:54.978Z,93.52
2017-08-18T09:17:54.961Z,93.38
2017-08-18T09:18:54.944Z,93.38
2017-08-18T09:19:54.932Z,93.38
2017-08-18T09:20:54.907Z,93.19
2017-08-18T09:21:54.886Z,93.19
2017-08-18T09:22:54.871Z,93.28
2017-08-18T09:23:54.912Z,92.41
2017-08-18T09:24:54.838Z,92.61
2017-08-18T09:25:54.818Z,92.41
2017-08-18T09:26:54.800Z,92.51
2017-08-18T09:27:54.785Z,92.8
2017-08-18T09:28:54.764Z,92.13
2017-08-18T09:29:54.745Z,92.32
2017-08-18T09:30:54.731Z,92.13
2017-08-18T09:31:54.402Z,92.71
2017-08-18T09:32:54.695Z,91.93
2017-08-18T09:33:54.681Z,92.03
2017-08-18T09:34:54.660Z,91.83
2017-08-18T09:35:54.645Z,91.55
2017-08-18T09:36:54.626Z,91.26
2017-08-18T09:37:54.605Z,91.36
2017-08-18T09:38:54.595Z,91.36
2017-08-18T09:39:54.569Z,91.5
2017-08-18T09:40:54.555Z,91.5
2017-08-18T09:41:54.236Z,91.2
2017-08-18T09:42:54.220Z,90.92
2017-08-18T09:43:54.561Z,90.82
2017-08-18T09:44:54.184Z,90.92
2017-08-18T09:45:54.478Z,91.11
2017-08-18T09:46:54.165Z,91.2
2017-08-18T09:47:54.438Z,91.02
2017-08-18T09:48:54.420Z,91.3
2017-08-18T09:49:54.403Z,90.82
2017-08-18T09:50:54.383Z,90.82
2017-08-18T09:51:54.364Z,90.88
2017-08-18T09:52:54.348Z,91.02
2017-08-18T09:53:54.328Z,90.88
2017-08-18T09:54:54.308Z,91.06
2017-08-18T09:55:54.292Z,90.92
2017-08-18T09:56:54.277Z,91.2
2017-08-18T09:57:54.263Z,90.97
2017-08-18T09:58:54.245Z,90.48
2017-08-18T09:59:54.225Z,90.88
2017-08-18T10:00:54.417Z,90.88
2017-08-18T10:01:54.198Z,90.97
2017-08-18T10:02:54.174Z,91.16
2017-08-18T10:03:54.159Z,91.16
2017-08-18T10:04:54.138Z,90.78
2017-08-18T10:05:54.146Z,90.78
2017-08-18T10:06:54.100Z,91.16
2017-08-18T10:07:54.090Z,90.88
2017-08-18T10:08:54.072Z,90.68
2017-08-18T10:09:54.050Z,90.97
2017-08-18T10:10:53.735Z,90.78
2017-08-18T10:11:54.014Z,90.78
2017-08-18T10:12:53.996Z,90.88
2017-08-18T10:13:53.982Z,90.68
2017-08-18T10:14:53.960Z,91.26
2017-08-18T10:15:53.941Z,91.06
2017-08-18T10:16:53.929Z,91.36
2017-08-18T10:17:53.910Z,90.78
2017-08-18T10:18:53.593Z,91.06
2017-08-18T10:19:53.875Z,90.88
2017-08-18T10:20:53.907Z,90.97
2017-08-18T10:21:53.538Z,90.68
2017-08-18T10:22:53.513Z,91.06
2017-08-18T10:23:53.804Z,90.88
2017-08-18T10:24:53.784Z,91.06
2017-08-18T10:25:53.771Z,90.78
2017-08-18T10:26:53.743Z,91.55
2017-08-18T10:27:53.730Z,91.36
2017-08-18T10:28:53.719Z,91.45
2017-08-18T10:29:53.688Z,91.45
2017-08-18T10:30:53.675Z,91.36
2017-08-18T10:31:53.656Z,90.97
2017-08-18T10:32:53.638Z,91.06
2017-08-18T10:33:53.628Z,90.88
2017-08-18T10:34:53.603Z,90.68
2017-08-18T10:35:53.589Z,90.78
2017-08-18T10:36:53.571Z,90.97
2017-08-18T10:37:53.547Z,91.02
2017-08-18T10:38:53.529Z,91.11
2017-08-18T10:39:53.514Z,91.11
2017-08-18T10:40:53.505Z,90.92
2017-08-18T10:41:53.485Z,91.02
2017-08-18T10:42:53.461Z,90.92
2017-08-18T10:43:53.441Z,90.82
2017-08-18T10:44:53.422Z,90.72
2017-08-18T10:45:53.411Z,90.44
2017-08-18T10:46:53.387Z,90.63
2017-08-18T10:47:53.372Z,90.44
2017-08-18T10:48:53.051Z,90.58
2017-08-18T10:49:53.331Z,90.48
2017-08-18T10:50:53.312Z,90.2
2017-08-18T10:51:53.295Z,90.1
2017-08-18T10:52:53.276Z,90.1
2017-08-18T10:53:53.263Z,90.2
2017-08-18T10:54:53.246Z,90.58
2017-08-18T10:55:53.229Z,90.39
2017-08-18T10:56:53.204Z,90.39
2017-08-18T10:57:53.188Z,90.97
2017-08-18T10:58:53.179Z,90.58
2017-08-18T10:59:53.156Z,90.58
2017-08-18T11:00:53.140Z,90.78
2017-08-18T11:01:53.117Z,91.16
2017-08-18T11:02:53.101Z,91.16
2017-08-18T11:03:53.079Z,90.97
2017-08-18T11:04:53.063Z,91.16
2017-08-18T11:05:53.047Z,90.88
2017-08-18T11:06:53.027Z,90.88
2017-08-18T11:07:53.032Z,90.97
2017-08-18T11:08:52.984Z,90.88
2017-08-18T11:09:52.971Z,90.97
2017-08-18T11:10:52.952Z,90.97
2017-08-18T11:11:52.931Z,91.36
2017-08-18T11:12:52.914Z,91.26
2017-08-18T11:13:52.898Z,91.36
2017-08-18T11:14:52.929Z,91.55
2017-08-18T11:15:52.866Z,91.93
2017-08-18T11:16:52.844Z,91.74
2017-08-18T11:17:52.879Z,91.55
2017-08-18T11:18:52.806Z,91.5
2017-08-18T11:19:52.811Z,92.22
2017-08-18T11:20:52.770Z,91.64
2017-08-18T11:21:52.746Z,92.13
2017-08-18T11:22:52.728Z,92.22
2017-08-18T11:23:52.714Z,92.13
2017-08-18T11:24:52.694Z,91.74
2017-08-18T11:25:52.689Z,91.74
2017-08-18T11:26:52.660Z,91.55
2017-08-18T11:27:52.642Z,91.74
2017-08-18T11:28:52.626Z,91.55
2017-08-18T11:29:52.604Z,91.6
2017-08-18T11:30:52.594Z,91.55
2017-08-18T11:31:52.565Z,91.45
2017-08-18T11:32:52.547Z,91.36
2017-08-18T11:33:52.230Z,91.55
2017-08-18T11:34:52.517Z,91.74
2017-08-18T11:35:52.490Z,91.74
2017-08-18T11:36:52.469Z,92.13
2017-08-18T11:37:52.455Z,92.32
2017-08-18T11:38:52.443Z,92.22
2017-08-18T11:39:52.417Z,92.13
2017-08-18T11:40:52.400Z,92.13
2017-08-18T11:41:52.383Z,92.13
2017-08-18T11:42:52.360Z,92.22
2017-08-18T11:43:52.040Z,91.55
2017-08-18T11:44:52.323Z,92.13
2017-08-18T11:45:52.307Z,92.41
2017-08-18T11:46:52.292Z,91.55
2017-08-18T11:47:52.273Z,91.74
2017-08-18T11:48:51.950Z,91.06
2017-08-18T11:49:52.243Z,91.26
2017-08-18T11:50:52.267Z,91.26
2017-08-18T11:51:52.256Z,90.97
2017-08-18T11:52:52.177Z,90.78
2017-08-18T11:53:52.164Z,90.78
2017-08-18T11:54:52.151Z,90.97
2017-08-18T11:55:52.126Z,90.97
2017-08-18T11:56:52.111Z,90.97
2017-08-18T11:57:52.089Z,91.06
2017-08-18T11:58:52.075Z,91.16
2017-08-18T11:59:52.056Z,91.36
2017-08-18T12:00:52.035Z,91.26
2017-08-18T12:01:52.061Z,90.97
2017-08-18T12:02:51.996Z,91.06
2017-08-18T12:03:51.986Z,91.11
2017-08-18T12:04:51.965Z,91.2
2017-08-18T12:05:51.947Z,91.4
2017-08-18T12:06:51.926Z,91.06
2017-08-18T12:07:51.913Z,90.68
2017-08-18T12:08:51.892Z,90.72
2017-08-18T12:09:51.580Z,90.82
2017-08-18T12:10:51.859Z,90.63
2017-08-18T12:11:51.843Z,90.63
2017-08-18T12:12:51.862Z,90.72
2017-08-18T12:13:51.801Z,90.24
2017-08-18T12:14:51.785Z,90.72
2017-08-18T12:15:51.765Z,90.44
2017-08-18T12:16:51.745Z,90.63
2017-08-18T12:17:51.729Z,91.02
2017-08-18T12:18:51.708Z,90.92
2017-08-18T12:19:51.699Z,90.63
2017-08-18T12:20:51.675Z,90.63
2017-08-18T12:21:51.656Z,90.48
2017-08-18T12:22:51.647Z,90.77
2017-08-18T12:23:51.619Z,90.15
2017-08-18T12:24:51.901Z,90.53
2017-08-18T12:25:51.589Z,91.02
2017-08-18T12:26:51.568Z,90.82
2017-08-18T12:27:51.553Z,90.82
2017-08-18T12:28:51.526Z,91.4
2017-08-18T12:29:51.512Z,91.2
2017-08-18T12:30:51.492Z,91.11
2017-08-18T12:31:51.476Z,90.82
2017-08-18T12:32:51.460Z,91.02
2017-08-18T12:33:51.442Z,91.11
2017-08-18T12:34:51.140Z,91.02
2017-08-18T12:35:51.413Z,91.02
2017-08-18T12:36:51.393Z,90.92
2017-08-18T12:37:51.117Z,90.78
2017-08-18T12:38:51.350Z,91.06
2017-08-18T12:39:51.336Z,90.97
2017-08-18T12:40:51.311Z,90.88
2017-08-18T12:41:51.294Z,91.06
2017-08-18T12:42:51.270Z,91.55
2017-08-18T12:43:50.962Z,91.55
2017-08-18T12:44:51.248Z,91.36
2017-08-18T12:45:51.221Z,91.16
2017-08-18T12:46:51.226Z,91.36
2017-08-18T12:47:51.186Z,91.16
2017-08-18T12:48:51.173Z,91.55
2017-08-18T12:49:51.153Z,91.99
2017-08-18T12:50:51.131Z,91.99
2017-08-18T12:51:51.164Z,92.08
2017-08-18T12:52:51.138Z,91.99
2017-08-18T12:53:51.076Z,92.66